Time;durP1;ratioP1;P1;durP2;ratioP2;P2;SDS_P1;SDS_P2;PMS_P1;PMS_P2;Temp;Humidity;BMP_temperature;BMP_pressure;BME280_temperature;BME280_humidity;BME280_pressure;Samples;Min_cycle;Max_cycle;Signal;HPM_P1;HPM_P2
2021/08/02 00:01:03;;;;;;;12.90;5.40;;;;;;;;;;5045754;28;20478;-88
2021/08/02 00:03:28;;;;;;;9.15;5.53;;;;;;;;;;5022989;28;20033;-89
2021/08/02 00:05:54;;;;;;;11.85;6.43;;;;;;;;;;5028116;28;20445;-88
2021/08/02 00:08:21;;;;;;;10.38;6.10;;;;;;;;;;5014679;28;20032;-89
2021/08/02 00:10:48;;;;;;;13.38;6.72;;;;;;;;;;5014529;28;20026;-89
2021/08/02 00:13:15;;;;;;;12.48;6.22;;;;;;;;;;5028807;28;20056;-88
2021/08/02 00:15:40;;;;;;;8.98;6.00;;;;;;;;;;5015848;28;20057;-88
2021/08/02 00:18:06;;;;;;;12.65;6.78;;;;;;;;;;5015192;28;20014;-88
2021/08/02 00:20:33;;;;;;;18.05;6.80;;;;;;;;;;5019947;28;20038;-88
2021/08/02 00:22:59;;;;;;;12.25;6.40;;;;;;;;;;5014474;28;20041;-89
2021/08/02 00:25:24;;;;;;;11.80;6.10;;;;;;;;;;5014315;28;20025;-88
2021/08/02 00:27:51;;;;;;;15.45;6.60;;;;;;;;;;5019548;28;20396;-89
2021/08/02 00:30:16;;;;;;;8.50;5.70;;;;;;;;;;5021715;28;20136;-88
2021/08/02 00:32:42;;;;;;;15.73;6.90;;;;;;;;;;5016763;28;20029;-88
2021/08/02 00:35:07;;;;;;;12.63;5.90;;;;;;;;;;5015560;28;20026;-88
2021/08/02 00:37:32;;;;;;;11.02;6.20;;;;;;;;;;5014237;28;20026;-88
2021/08/02 00:40:04;;;;;;;10.02;5.78;;;;;;;;;;5014691;28;20029;-89
2021/08/02 00:42:51;;;;;;;11.73;6.10;;;;;;;;;;5022560;28;20112;-89
2021/08/02 00:45:43;;;;;;;10.23;5.85;;;;;;;;;;5020786;28;20037;-88
2021/08/02 00:48:09;;;;;;;11.37;5.97;;;;;;;;;;5019647;28;20036;-89
2021/08/02 00:50:39;;;;;;;10.60;6.45;;;;;;;;;;5043790;28;20045;-88
2021/08/02 00:53:12;;;;;;;16.55;6.88;;;;;;;;;;5010397;28;20026;-88
2021/08/02 00:55:39;;;;;;;16.35;7.35;;;;;;;;;;5017420;28;20485;-88
2021/08/02 00:58:05;;;;;;;13.48;6.55;;;;;;;;;;5039042;28;20465;-88
2021/08/02 01:00:31;;;;;;;16.80;6.90;;;;;;;;;;5047020;28;20033;-88
2021/08/02 01:02:57;;;;;;;10.32;5.85;;;;;;;;;;5059609;28;20386;-88
2021/08/02 01:05:23;;;;;;;16.92;6.57;;;;;;;;;;5046749;28;20420;-89
2021/08/02 01:07:55;;;;;;;11.00;6.45;;;;;;;;;;5014274;28;20022;-89
2021/08/02 01:10:20;;;;;;;;;;;;;;;;;;5022868;28;20022;-89
2021/08/02 01:12:48;;;;;;;12.65;5.88;;;;;;;;;;5013324;28;19910;-89
2021/08/02 01:15:14;;;;;;;8.35;5.22;;;;;;;;;;5018150;28;20289;-88
2021/08/02 01:17:39;;;;;;;12.20;6.10;;;;;;;;;;5017179;28;20117;-88
2021/08/02 01:20:05;;;;;;;10.40;6.22;;;;;;;;;;5013686;28;20060;-88
2021/08/02 01:22:31;;;;;;;13.18;6.18;;;;;;;;;;5019449;28;20163;-89
2021/08/02 01:24:57;;;;;;;14.45;6.53;;;;;;;;;;5014160;28;20022;-88
2021/08/02 01:27:41;;;;;;;10.35;5.63;;;;;;;;;;5013295;28;20040;-88
2021/08/02 01:30:14;;;;;;;8.65;5.88;;;;;;;;;;5026266;28;20034;-89
2021/08/02 01:32:40;;;;;;;12.50;5.65;;;;;;;;;;5013390;28;20140;-88
2021/08/02 01:35:05;;;;;;;10.35;6.00;;;;;;;;;;5014218;28;20459;-88
2021/08/02 01:37:30;;;;;;;13.55;7.13;;;;;;;;;;5016609;28;20021;-88
2021/08/02 01:39:56;;;;;;;11.18;6.35;;;;;;;;;;5014255;28;20461;-88
2021/08/02 01:42:21;;;;;;;12.82;6.15;;;;;;;;;;5020225;28;20026;-89
2021/08/02 01:44:47;;;;;;;13.38;6.43;;;;;;;;;;5014172;28;20122;-88
2021/08/02 01:47:21;;;;;;;9.60;6.00;;;;;;;;;;5012492;28;20226;-86
2021/08/02 01:49:50;;;;;;;9.90;6.38;;;;;;;;;;5014385;28;20021;-88
2021/08/02 01:52:18;;;;;;;11.02;5.90;;;;;;;;;;5016199;28;20022;-88
2021/08/02 01:54:59;;;;;;;10.98;6.35;;;;;;;;;;5019519;28;20136;-88
2021/08/02 01:57:30;;;;;;;13.57;6.28;;;;;;;;;;5010771;28;20025;-88
2021/08/02 01:59:58;;;;;;;9.30;5.88;;;;;;;;;;5012818;28;20022;-88
2021/08/02 02:02:25;;;;;;;12.77;6.10;;;;;;;;;;5012659;28;20397;-88
2021/08/02 02:05:06;;;;;;;10.90;6.45;;;;;;;;;;5019827;28;20116;-88
2021/08/02 02:07:35;;;;;;;13.23;6.32;;;;;;;;;;5016517;28;20113;-88
2021/08/02 02:10:01;;;;;;;15.38;5.95;;;;;;;;;;5012434;28;20030;-88
2021/08/02 02:12:26;;;;;;;10.98;5.70;;;;;;;;;;5023736;28;20084;-88
2021/08/02 02:14:55;;;;;;;13.00;5.72;;;;;;;;;;5008379;28;20109;-88
2021/08/02 02:17:21;;;;;;;9.00;5.75;;;;;;;;;;5011173;28;20026;-88
2021/08/02 02:19:48;;;;;;;9.70;5.88;;;;;;;;;;5045389;28;20025;-88
2021/08/02 02:22:14;;;;;;;12.75;6.13;;;;;;;;;;5045143;28;20034;-88
2021/08/02 02:24:41;;;;;;;16.95;6.43;;;;;;;;;;5013165;28;20025;-88
2021/08/02 02:27:06;;;;;;;15.32;6.97;;;;;;;;;;5013290;28;20108;-89
2021/08/02 02:29:33;;;;;;;12.23;6.45;;;;;;;;;;5016272;28;20116;-88
2021/08/02 02:31:59;;;;;;;12.35;6.43;;;;;;;;;;5022393;28;20515;-89
2021/08/02 02:34:24;;;;;;;18.38;6.53;;;;;;;;;;5019568;28;20022;-88
2021/08/02 02:36:50;;;;;;;15.63;6.78;;;;;;;;;;5012246;28;20346;-88
2021/08/02 02:39:15;;;;;;;15.50;7.13;;;;;;;;;;5015703;28;20028;-88
2021/08/02 02:41:41;;;;;;;14.43;6.95;;;;;;;;;;5019527;28;20028;-88
2021/08/02 02:44:06;;;;;;;13.18;6.43;;;;;;;;;;5011646;28;20109;-89
2021/08/02 02:46:32;;;;;;;14.25;6.13;;;;;;;;;;5023089;28;20136;-88
2021/08/02 02:48:58;;;;;;;8.90;5.47;;;;;;;;;;5020948;28;20067;-90
2021/08/02 02:51:25;;;;;;;11.65;6.07;;;;;;;;;;5024220;28;20486;-89
2021/08/02 02:53:50;;;;;;;18.15;6.40;;;;;;;;;;5017460;28;20014;-89
2021/08/02 02:56:16;;;;;;;23.73;6.90;;;;;;;;;;5011350;28;20025;-88
2021/08/02 02:58:42;;;;;;;11.52;7.00;;;;;;;;;;5016145;28;20025;-88
2021/08/02 03:01:07;;;;;;;9.65;5.95;;;;;;;;;;5027137;28;20026;-89
2021/08/02 03:03:34;;;;;;;11.73;5.70;;;;;;;;;;5016184;28;20029;-88
2021/08/02 03:05:59;;;;;;;9.32;5.78;;;;;;;;;;5029739;28;20362;-88
2021/08/02 03:08:25;;;;;;;23.15;6.50;;;;;;;;;;5019086;28;20032;-88
2021/08/02 03:10:51;;;;;;;20.90;6.07;;;;;;;;;;5017074;28;20028;-88
2021/08/02 03:13:17;;;;;;;13.57;6.57;;;;;;;;;;5022969;28;20029;-88
2021/08/02 03:15:42;;;;;;;15.07;6.78;;;;;;;;;;5011528;28;20834;-89
2021/08/02 03:18:07;;;;;;;14.88;6.43;;;;;;;;;;5011978;28;20021;-89
2021/08/02 03:20:33;;;;;;;10.38;6.07;;;;;;;;;;5012611;28;20032;-88
2021/08/02 03:23:01;;;;;;;10.35;6.15;;;;;;;;;;5016145;28;20030;-89
2021/08/02 03:25:27;;;;;;;19.38;6.47;;;;;;;;;;5020737;28;20026;-88
2021/08/02 03:27:55;;;;;;;11.95;6.50;;;;;;;;;;5016430;28;20029;-89
2021/08/02 03:30:21;;;;;;;11.50;6.68;;;;;;;;;;5020184;28;20393;-89
2021/08/02 03:32:47;;;;;;;10.82;6.07;;;;;;;;;;5018874;28;20129;-88
2021/08/02 03:35:13;;;;;;;13.95;6.95;;;;;;;;;;5011101;28;20474;-89
2021/08/02 03:37:40;;;;;;;13.00;6.70;;;;;;;;;;5011309;28;20068;-88
2021/08/02 03:40:07;;;;;;;13.23;7.40;;;;;;;;;;5018554;28;20512;-88
2021/08/02 03:42:34;;;;;;;13.07;6.72;;;;;;;;;;5022272;28;20057;-88
2021/08/02 03:45:00;;;;;;;13.85;7.40;;;;;;;;;;5010675;28;20420;-88
2021/08/02 03:47:25;;;;;;;13.35;7.30;;;;;;;;;;5011448;28;20034;-88
2021/08/02 03:49:50;;;;;;;12.93;6.75;;;;;;;;;;5022212;28;20029;-89
2021/08/02 03:52:16;;;;;;;13.15;6.82;;;;;;;;;;5021864;28;20026;-89
2021/08/02 03:54:41;;;;;;;11.10;6.60;;;;;;;;;;5011262;28;20030;-89
2021/08/02 03:57:06;;;;;;;11.80;7.20;;;;;;;;;;5020879;28;20028;-88
2021/08/02 03:59:33;;;;;;;13.05;6.85;;;;;;;;;;5011620;28;20080;-89
2021/08/02 04:01:58;;;;;;;15.27;6.95;;;;;;;;;;5018050;28;20037;-89
2021/08/02 04:04:23;;;;;;;12.13;6.30;;;;;;;;;;5013447;28;20033;-89
2021/08/02 04:06:48;;;;;;;15.85;7.40;;;;;;;;;;5011314;28;20034;-89
2021/08/02 04:09:14;;;;;;;17.45;7.53;;;;;;;;;;5011472;28;20124;-89
2021/08/02 04:11:40;;;;;;;13.45;7.00;;;;;;;;;;5011631;28;20033;-90
2021/08/02 04:14:05;;;;;;;13.45;7.13;;;;;;;;;;5019867;28;20014;-89
2021/08/02 04:16:31;;;;;;;14.75;6.95;;;;;;;;;;5020985;28;20164;-89
2021/08/02 04:18:56;;;;;;;16.75;7.03;;;;;;;;;;5018964;28;20042;-89
2021/08/02 04:21:21;;;;;;;11.77;6.00;;;;;;;;;;5019085;28;20033;-90
2021/08/02 04:23:46;;;;;;;11.57;6.28;;;;;;;;;;5010884;28;20029;-90
2021/08/02 04:26:12;;;;;;;10.93;6.13;;;;;;;;;;5011305;28;20405;-89
2021/08/02 04:28:41;;;;;;;15.02;6.65;;;;;;;;;;5018790;28;20561;-90
2021/08/02 04:31:07;;;;;;;10.95;6.35;;;;;;;;;;5015164;28;20025;-90
2021/08/02 04:33:32;;;;;;;9.23;5.50;;;;;;;;;;5018219;28;20456;-90
2021/08/02 04:35:57;;;;;;;14.82;7.10;;;;;;;;;;5014561;28;20417;-90
2021/08/02 04:38:22;;;;;;;12.93;6.53;;;;;;;;;;5014720;28;20041;-90
2021/08/02 04:40:48;;;;;;;11.07;6.28;;;;;;;;;;5014947;28;20456;-89
2021/08/02 04:43:13;;;;;;;11.85;6.25;;;;;;;;;;5019444;28;20030;-89
2021/08/02 04:45:38;;;;;;;19.60;6.80;;;;;;;;;;5026653;28;20033;-90
2021/08/02 04:48:03;;;;;;;10.50;5.97;;;;;;;;;;5025902;28;20037;-89
2021/08/02 04:50:29;;;;;;;14.00;5.53;;;;;;;;;;5017665;28;20038;-89
2021/08/02 04:52:54;;;;;;;11.60;6.10;;;;;;;;;;5015375;28;20121;-89
2021/08/02 04:55:19;;;;;;;10.48;6.18;;;;;;;;;;5032553;28;20025;-89
2021/08/02 04:57:45;;;;;;;10.93;6.32;;;;;;;;;;5024441;28;20033;-89
2021/08/02 05:00:10;;;;;;;11.75;6.35;;;;;;;;;;5025381;28;20032;-90
2021/08/02 05:02:36;;;;;;;12.82;6.18;;;;;;;;;;5016022;28;20057;-89
2021/08/02 05:05:01;;;;;;;13.27;6.15;;;;;;;;;;5013827;28;20041;-89
2021/08/02 05:07:26;;;;;;;10.23;5.95;;;;;;;;;;5022226;28;20037;-89
2021/08/02 05:09:51;;;;;;;12.95;6.55;;;;;;;;;;5021980;28;20041;-89
2021/08/02 05:12:17;;;;;;;16.67;6.78;;;;;;;;;;5021057;28;20079;-89
2021/08/02 05:14:43;;;;;;;14.75;7.15;;;;;;;;;;5014645;28;20018;-89
2021/08/02 05:17:08;;;;;;;12.27;7.07;;;;;;;;;;5028928;28;20030;-89
2021/08/02 05:19:33;;;;;;;13.82;7.47;;;;;;;;;;5021930;28;20476;-89
2021/08/02 05:21:59;;;;;;;14.55;7.05;;;;;;;;;;5022862;28;20029;-89
2021/08/02 05:24:24;;;;;;;20.38;7.30;;;;;;;;;;5017535;28;20026;-89
2021/08/02 05:26:49;;;;;;;14.27;7.20;;;;;;;;;;5013958;28;20566;-89
2021/08/02 05:29:15;;;;;;;24.73;8.13;;;;;;;;;;5014904;28;20465;-89
2021/08/02 05:31:40;;;;;;;16.25;7.13;;;;;;;;;;5013713;28;20022;-90
2021/08/02 05:34:05;;;;;;;12.85;7.30;;;;;;;;;;5021379;28;20029;-91
2021/08/02 05:36:30;;;;;;;13.10;7.13;;;;;;;;;;5013418;28;20020;-89
2021/08/02 05:38:56;;;;;;;14.23;7.70;;;;;;;;;;5016497;28;20021;-89
2021/08/02 05:41:21;;;;;;;15.80;7.60;;;;;;;;;;5018479;28;20017;-89
2021/08/02 05:43:46;;;;;;;14.57;6.28;;;;;;;;;;5026577;28;20485;-90
2021/08/02 05:46:11;;;;;;;12.25;7.40;;;;;;;;;;5013223;28;20367;-90
2021/08/02 05:48:36;;;;;;;15.38;6.40;;;;;;;;;;5026006;28;20385;-89
2021/08/02 05:51:02;;;;;;;15.02;6.47;;;;;;;;;;5013864;28;20377;-90
2021/08/02 05:53:27;;;;;;;13.18;4.90;;;;;;;;;;5013663;28;20032;-90
2021/08/02 05:55:53;;;;;;;12.50;4.60;;;;;;;;;;5024255;28;20043;-90
2021/08/02 05:58:18;;;;;;;9.85;5.13;;;;;;;;;;5023620;28;20060;-91
2021/08/02 06:00:43;;;;;;;12.35;5.32;;;;;;;;;;5018236;28;20033;-90
2021/08/02 06:03:11;;;;;;;10.30;5.07;;;;;;;;;;5013201;28;20112;-90
2021/08/02 06:05:36;;;;;;;14.02;5.45;;;;;;;;;;5013471;28;20353;-90
2021/08/02 06:08:02;;;;;;;12.32;5.40;;;;;;;;;;5013499;28;20021;-90
2021/08/02 06:10:27;;;;;;;9.77;4.97;;;;;;;;;;5006615;28;20045;-90
2021/08/02 06:12:52;;;;;;;9.73;5.35;;;;;;;;;;5020778;28;20510;-90
2021/08/02 06:15:17;;;;;;;11.95;4.95;;;;;;;;;;5015039;28;20428;-90
2021/08/02 06:17:43;;;;;;;11.80;5.47;;;;;;;;;;5027319;28;20039;-90
2021/08/02 06:20:08;;;;;;;16.63;5.72;;;;;;;;;;5006860;28;20089;-91
2021/08/02 06:22:34;;;;;;;9.73;5.10;;;;;;;;;;5005279;28;20030;-90
2021/08/02 06:24:59;;;;;;;9.82;5.43;;;;;;;;;;5012985;28;20022;-90
2021/08/02 06:27:29;;;;;;;10.68;5.85;;;;;;;;;;5014308;28;20327;-89
2021/08/02 06:29:54;;;;;;;9.15;4.80;;;;;;;;;;4998836;28;20038;-90
2021/08/02 06:32:20;;;;;;;17.60;6.20;;;;;;;;;;5014634;28;20109;-90
2021/08/02 06:34:45;;;;;;;13.43;6.00;;;;;;;;;;5012769;28;20454;-90
2021/08/02 06:37:12;;;;;;;14.05;6.65;;;;;;;;;;5012495;28;20072;-90
2021/08/02 06:39:37;;;;;;;16.90;6.70;;;;;;;;;;5017139;28;20021;-90
2021/08/02 06:42:03;;;;;;;13.68;6.00;;;;;;;;;;5022007;28;20032;-89
2021/08/02 06:44:28;;;;;;;12.77;6.22;;;;;;;;;;5013352;28;20378;-89
2021/08/02 06:46:53;;;;;;;12.18;6.28;;;;;;;;;;5021384;28;20136;-90
2021/08/02 06:49:18;;;;;;;13.27;6.65;;;;;;;;;;5015555;28;20030;-90
2021/08/02 06:51:44;;;;;;;10.48;5.45;;;;;;;;;;5019895;28;20037;-90
2021/08/02 06:54:09;;;;;;;10.38;5.63;;;;;;;;;;5012015;28;20018;-90
2021/08/02 06:56:34;;;;;;;11.75;5.32;;;;;;;;;;5019609;28;20378;-89
2021/08/02 06:58:59;;;;;;;14.07;5.97;;;;;;;;;;5023867;28;20495;-90
2021/08/02 07:01:24;;;;;;;10.82;5.53;;;;;;;;;;5021245;28;20474;-90
2021/08/02 07:03:50;;;;;;;9.93;4.95;;;;;;;;;;5018856;28;20026;-90
2021/08/02 07:06:15;;;;;;;7.95;4.50;;;;;;;;;;5017616;28;20032;-89
2021/08/02 07:08:40;;;;;;;10.25;4.95;;;;;;;;;;5022244;28;20029;-90
2021/08/02 07:11:06;;;;;;;11.55;5.13;;;;;;;;;;5020021;28;20028;-89
2021/08/02 07:13:32;;;;;;;10.40;5.10;;;;;;;;;;5018243;28;20371;-89
2021/08/02 07:16:00;;;;;;;13.23;5.38;;;;;;;;;;5011950;28;20021;-90
2021/08/02 07:18:26;;;;;;;15.13;6.10;;;;;;;;;;5021058;28;20037;-90
2021/08/02 07:20:51;;;;;;;11.30;4.30;;;;;;;;;;5029073;28;20021;-90
2021/08/02 07:23:16;;;;;;;11.13;5.20;;;;;;;;;;5012610;28;20124;-89
2021/08/02 07:25:42;;;;;;;12.07;4.93;;;;;;;;;;5010790;28;20485;-89
2021/08/02 07:28:07;;;;;;;7.95;4.50;;;;;;;;;;5012967;28;20116;-89
2021/08/02 07:30:32;;;;;;;9.38;4.35;;;;;;;;;;5011699;28;20022;-89
2021/08/02 07:32:58;;;;;;;10.98;4.00;;;;;;;;;;5001179;28;20088;-90
2021/08/02 07:35:23;;;;;;;9.35;4.18;;;;;;;;;;5009686;28;20021;-89
2021/08/02 07:37:48;;;;;;;8.40;3.92;;;;;;;;;;5011332;28;20022;-90
2021/08/02 07:40:14;;;;;;;6.25;4.03;;;;;;;;;;5018588;28;20033;-89
2021/08/02 07:42:39;;;;;;;12.98;4.07;;;;;;;;;;5011406;28;20395;-90
2021/08/02 07:45:04;;;;;;;9.20;3.78;;;;;;;;;;5019241;28;20064;-89
2021/08/02 07:47:30;;;;;;;9.02;3.65;;;;;;;;;;5011235;28;20030;-89
2021/08/02 07:49:55;;;;;;;12.35;3.85;;;;;;;;;;5048358;28;20036;-89
2021/08/02 07:52:20;;;;;;;5.18;3.15;;;;;;;;;;5013525;28;20125;-89
2021/08/02 07:54:45;;;;;;;6.75;3.20;;;;;;;;;;5012277;28;20022;-89
2021/08/02 07:57:10;;;;;;;7.57;4.57;;;;;;;;;;5018639;28;20033;-89
2021/08/02 07:59:36;;;;;;;9.80;4.78;;;;;;;;;;5010784;28;20032;-89
2021/08/02 08:02:01;;;;;;;7.25;4.47;;;;;;;;;;5009374;28;20112;-89
2021/08/02 08:04:26;;;;;;;7.75;4.22;;;;;;;;;;5011078;28;20084;-89
2021/08/02 08:06:52;;;;;;;11.05;4.38;;;;;;;;;;5012141;28;20033;-89
2021/08/02 08:09:17;;;;;;;9.27;4.30;;;;;;;;;;5009275;28;20018;-89
2021/08/02 08:11:43;;;;;;;7.57;3.17;;;;;;;;;;5023088;28;20025;-89
2021/08/02 08:14:08;;;;;;;7.97;4.15;;;;;;;;;;5020484;28;20426;-89
2021/08/02 08:16:33;;;;;;;10.32;4.53;;;;;;;;;;5016094;28;20030;-89
2021/08/02 08:18:59;;;;;;;7.97;4.55;;;;;;;;;;5016523;28;20017;-89
2021/08/02 08:21:24;;;;;;;10.95;5.22;;;;;;;;;;5013051;28;20095;-89
2021/08/02 08:23:49;;;;;;;13.50;5.47;;;;;;;;;;5014932;28;20021;-89
2021/08/02 08:26:14;;;;;;;11.07;5.47;;;;;;;;;;5047309;28;20093;-88
2021/08/02 08:28:40;;;;;;;12.65;6.18;;;;;;;;;;5022416;28;20033;-89
2021/08/02 08:31:05;;;;;;;9.25;5.25;;;;;;;;;;5047935;28;20021;-89
2021/08/02 08:33:30;;;;;;;11.23;5.10;;;;;;;;;;5027087;28;20026;-89
2021/08/02 08:35:56;;;;;;;11.48;5.60;;;;;;;;;;5012300;28;20075;-89
2021/08/02 08:38:21;;;;;;;10.60;5.07;;;;;;;;;;5024814;28;20025;-89
2021/08/02 08:40:46;;;;;;;10.90;4.88;;;;;;;;;;5014816;28;20025;-89
2021/08/02 08:43:15;;;;;;;13.10;4.85;;;;;;;;;;5013791;28;20042;-89
2021/08/02 08:45:40;;;;;;;8.40;4.80;;;;;;;;;;5014168;28;20026;-88
2021/08/02 08:48:06;;;;;;;9.02;5.80;;;;;;;;;;5014698;28;20030;-89
2021/08/02 08:50:31;;;;;;;12.80;6.25;;;;;;;;;;5014253;28;20040;-89
2021/08/02 08:52:57;;;;;;;13.57;5.60;;;;;;;;;;5013915;28;20018;-89
2021/08/02 08:55:23;;;;;;;12.90;7.07;;;;;;;;;;5009032;28;20033;-89
2021/08/02 08:57:48;;;;;;;13.30;6.70;;;;;;;;;;5011318;28;20492;-89
2021/08/02 09:00:23;;;;;;;12.20;5.72;;;;;;;;;;5010247;28;20026;-91
2021/08/02 09:02:50;;;;;;;14.23;6.13;;;;;;;;;;5020975;28;20142;-88
2021/08/02 09:05:15;;;;;;;16.45;6.78;;;;;;;;;;5013828;28;20079;-88
2021/08/02 09:07:41;;;;;;;12.10;5.60;;;;;;;;;;5015140;28;20021;-89
2021/08/02 09:10:11;;;;;;;9.68;4.32;;;;;;;;;;5015407;28;20026;-89
2021/08/02 09:12:47;;;;;;;9.35;5.18;;;;;;;;;;5009522;28;20037;-89
2021/08/02 09:15:12;;;;;;;8.60;4.40;;;;;;;;;;5032824;28;20036;-88
2021/08/02 09:17:38;;;;;;;8.55;4.88;;;;;;;;;;5017792;28;20030;-89
2021/08/02 09:20:04;;;;;;;10.80;4.47;;;;;;;;;;5015284;28;20401;-87
2021/08/02 09:22:31;;;;;;;9.90;4.43;;;;;;;;;;5019697;28;20044;-87
2021/08/02 09:25:03;;;;;;;10.57;4.65;;;;;;;;;;5046168;28;20026;-90
2021/08/02 09:27:28;;;;;;;7.85;4.85;;;;;;;;;;5050649;28;20026;-89
2021/08/02 09:29:54;;;;;;;9.27;4.97;;;;;;;;;;5020285;28;20103;-88
2021/08/02 09:32:19;;;;;;;9.82;4.60;;;;;;;;;;5014518;28;20535;-89
2021/08/02 09:34:46;;;;;;;9.45;4.95;;;;;;;;;;5021903;28;20075;-87
2021/08/02 09:37:24;;;;;;;10.05;4.97;;;;;;;;;;5026585;28;20458;-87
2021/08/02 09:39:49;;;;;;;10.00;5.10;;;;;;;;;;5017656;28;20073;-88
2021/08/02 09:42:14;;;;;;;12.88;5.82;;;;;;;;;;5012822;28;20050;-88
2021/08/02 09:44:40;;;;;;;9.93;5.57;;;;;;;;;;5013165;28;20022;-88
2021/08/02 09:47:07;;;;;;;7.60;4.18;;;;;;;;;;5020572;28;20344;-88
2021/08/02 09:49:48;;;;;;;11.10;4.45;;;;;;;;;;5020008;28;20161;-88
2021/08/02 09:52:14;;;;;;;7.25;4.75;;;;;;;;;;5013923;28;20037;-88
2021/08/02 09:54:40;;;;;;;12.23;5.32;;;;;;;;;;5024376;28;20021;-88
2021/08/02 09:57:05;;;;;;;11.68;5.20;;;;;;;;;;5018351;28;20104;-89
2021/08/02 09:59:31;;;;;;;10.30;5.22;;;;;;;;;;5021299;28;20438;-90
2021/08/02 10:01:57;;;;;;;10.77;5.72;;;;;;;;;;5015459;28;20025;-87
2021/08/02 10:04:23;;;;;;;7.35;4.47;;;;;;;;;;5013233;28;20042;-89
2021/08/02 10:06:49;;;;;;;9.27;3.83;;;;;;;;;;5039990;28;20136;-89
2021/08/02 10:09:14;;;;;;;7.18;4.20;;;;;;;;;;5002837;28;20111;-89
2021/08/02 10:11:40;;;;;;;10.48;5.05;;;;;;;;;;5012620;28;20057;-90
2021/08/02 10:14:06;;;;;;;9.30;4.90;;;;;;;;;;5007678;28;20041;-89
2021/08/02 10:16:32;;;;;;;7.10;4.72;;;;;;;;;;5028495;28;20053;-90
2021/08/02 10:19:02;;;;;;;8.93;3.90;;;;;;;;;;5022946;28;20541;-90
2021/08/02 10:21:35;;;;;;;6.70;3.80;;;;;;;;;;5025787;28;20112;-90
2021/08/02 10:24:08;;;;;;;8.90;5.35;;;;;;;;;;5012433;28;20083;-89
2021/08/02 10:26:33;;;;;;;7.47;4.28;;;;;;;;;;5012162;28;20026;-90
2021/08/02 10:28:59;;;;;;;9.57;4.82;;;;;;;;;;5012169;28;20382;-90
2021/08/02 10:31:26;;;;;;;12.15;4.63;;;;;;;;;;5012546;28;20037;-90
2021/08/02 10:33:52;;;;;;;8.65;4.68;;;;;;;;;;5041801;28;20022;-89
2021/08/02 10:36:18;;;;;;;9.50;5.05;;;;;;;;;;5009961;28;20439;-89
2021/08/02 10:38:45;;;;;;;10.98;5.80;;;;;;;;;;5049678;28;20378;-89
2021/08/02 10:41:10;;;;;;;13.63;5.88;;;;;;;;;;5017809;28;20109;-89
2021/08/02 10:43:40;;;;;;;7.68;5.47;;;;;;;;;;5012146;28;20449;-89
2021/08/02 10:46:16;;;;;;;9.35;5.47;;;;;;;;;;5009242;28;20022;-88
2021/08/02 10:48:41;;;;;;;11.10;4.90;;;;;;;;;;5052723;28;20017;-89
2021/08/02 10:51:14;;;;;;;9.43;5.50;;;;;;;;;;5016256;28;20025;-89
2021/08/02 10:53:39;;;;;;;9.80;5.90;;;;;;;;;;5005541;28;20049;-89
2021/08/02 10:56:04;;;;;;;9.52;5.82;;;;;;;;;;5019804;28;20036;-89
2021/08/02 10:58:32;;;;;;;12.27;5.78;;;;;;;;;;5013113;28;20044;-89
2021/08/02 11:00:59;;;;;;;9.68;5.15;;;;;;;;;;5011916;28;20021;-89
2021/08/02 11:03:42;;;;;;;12.43;6.38;;;;;;;;;;5012127;28;20460;-89
2021/08/02 11:06:08;;;;;;;17.45;5.82;;;;;;;;;;5012571;28;20051;-89
2021/08/02 11:08:35;;;;;;;15.73;6.57;;;;;;;;;;5018186;28;20049;-89
2021/08/02 11:11:04;;;;;;;8.77;5.68;;;;;;;;;;5002771;28;20044;-89
2021/08/02 11:13:29;;;;;;;12.02;5.53;;;;;;;;;;5019493;28;20075;-89
2021/08/02 11:15:54;;;;;;;11.48;5.18;;;;;;;;;;5021139;28;20096;-88
2021/08/02 11:18:27;;;;;;;9.55;5.05;;;;;;;;;;5005954;28;20022;-89
2021/08/02 11:20:53;;;;;;;10.88;6.43;;;;;;;;;;5005956;28;20026;-88
2021/08/02 11:23:28;;;;;;;9.10;6.18;;;;;;;;;;5019618;28;20045;-89
2021/08/02 11:26:03;;;;;;;9.35;5.68;;;;;;;;;;5041733;28;20354;-89
2021/08/02 11:28:35;;;;;;;10.18;5.35;;;;;;;;;;5014699;28;20021;-89
2021/08/02 11:31:01;;;;;;;7.25;4.95;;;;;;;;;;5033539;28;20090;-89
2021/08/02 11:33:32;;;;;;;9.13;6.07;;;;;;;;;;5011592;28;20041;-90
2021/08/02 11:35:57;;;;;;;9.68;6.10;;;;;;;;;;5004154;28;20476;-89
2021/08/02 11:38:32;;;;;;;11.73;6.28;;;;;;;;;;5008631;28;20117;-89
2021/08/02 11:40:58;;;;;;;12.20;6.47;;;;;;;;;;5024164;28;20033;-89
2021/08/02 11:43:23;;;;;;;10.50;5.05;;;;;;;;;;5021701;28;20025;-89
2021/08/02 11:45:49;;;;;;;12.10;7.00;;;;;;;;;;5011927;28;20381;-89
2021/08/02 11:48:14;;;;;;;10.02;6.10;;;;;;;;;;5020585;28;20021;-89
2021/08/02 11:50:40;;;;;;;10.75;6.28;;;;;;;;;;5016702;28;20029;-89
2021/08/02 11:53:05;;;;;;;10.52;5.70;;;;;;;;;;5018951;28;20461;-89
2021/08/02 11:55:31;;;;;;;9.93;5.20;;;;;;;;;;5018320;28;20050;-89
2021/08/02 11:57:58;;;;;;;7.47;5.05;;;;;;;;;;5017243;28;20022;-88
2021/08/02 12:00:23;;;;;;;12.77;5.78;;;;;;;;;;5054138;28;20028;-89
2021/08/02 12:02:49;;;;;;;9.70;4.95;;;;;;;;;;5016397;28;20021;-89
2021/08/02 12:05:25;;;;;;;10.90;5.30;;;;;;;;;;5008634;28;20022;-89
2021/08/02 12:07:51;;;;;;;9.80;5.00;;;;;;;;;;5053449;28;20026;-89
2021/08/02 12:10:18;;;;;;;9.02;5.55;;;;;;;;;;5021402;28;20021;-88
2021/08/02 12:12:44;;;;;;;12.57;5.00;;;;;;;;;;5027985;28;20444;-88
2021/08/02 12:15:11;;;;;;;9.02;4.88;;;;;;;;;;5026416;28;20416;-89
2021/08/02 12:17:47;;;;;;;10.23;5.32;;;;;;;;;;5030870;28;20022;-89
2021/08/02 12:20:12;;;;;;;11.18;5.20;;;;;;;;;;5011008;28;20079;-89
2021/08/02 12:22:38;;;;;;;6.57;4.60;;;;;;;;;;5018438;28;20031;-89
2021/08/02 12:25:04;;;;;;;11.45;4.75;;;;;;;;;;5006560;28;20025;-89
2021/08/02 12:27:29;;;;;;;9.30;4.53;;;;;;;;;;5019599;28;20481;-88
2021/08/02 12:29:56;;;;;;;9.80;4.65;;;;;;;;;;5057977;28;20022;-89
2021/08/02 12:32:21;;;;;;;5.57;4.07;;;;;;;;;;5010941;28;20309;-88
2021/08/02 12:34:47;;;;;;;11.70;4.50;;;;;;;;;;5055037;28;20056;-88
2021/08/02 12:37:13;;;;;;;5.15;3.63;;;;;;;;;;5009866;28;20030;-88
2021/08/02 12:39:38;;;;;;;6.88;3.42;;;;;;;;;;5015528;28;20014;-89
2021/08/02 12:42:03;;;;;;;7.70;3.92;;;;;;;;;;5026545;28;20020;-88
2021/08/02 12:44:28;;;;;;;8.60;3.63;;;;;;;;;;5020713;28;20022;-89
2021/08/02 12:46:54;;;;;;;5.80;3.47;;;;;;;;;;5013563;28;20025;-89
2021/08/02 12:49:19;;;;;;;9.73;2.97;;;;;;;;;;5021761;28;20025;-88
2021/08/02 12:51:44;;;;;;;5.38;2.92;;;;;;;;;;5049338;28;20022;-89
2021/08/02 12:54:09;;;;;;;6.82;3.70;;;;;;;;;;5015161;28;20022;-89
2021/08/02 12:56:35;;;;;;;5.35;3.70;;;;;;;;;;5017523;28;20021;-89
2021/08/02 12:59:00;;;;;;;10.27;3.55;;;;;;;;;;5052651;28;20114;-89
2021/08/02 13:01:26;;;;;;;6.65;3.42;;;;;;;;;;5017234;28;20084;-89
2021/08/02 13:03:52;;;;;;;8.38;3.40;;;;;;;;;;5009960;28;20109;-88
2021/08/02 13:06:20;;;;;;;6.57;2.97;;;;;;;;;;5025776;28;20505;-88
2021/08/02 13:08:45;;;;;;;6.65;3.38;;;;;;;;;;5046791;28;20018;-88
2021/08/02 13:11:10;;;;;;;4.88;2.60;;;;;;;;;;5061557;28;20022;-88
2021/08/02 13:13:35;;;;;;;7.47;2.95;;;;;;;;;;5022302;28;20029;-88
2021/08/02 13:16:01;;;;;;;12.45;2.85;;;;;;;;;;5018773;28;20416;-88
2021/08/02 13:18:26;;;;;;;5.32;2.75;;;;;;;;;;5046827;28;20031;-88
2021/08/02 13:20:51;;;;;;;5.07;2.45;;;;;;;;;;5013656;28;20416;-88
2021/08/02 13:28:36;;;;;;;7.05;3.13;;;;;;;;;;5015852;28;20065;-87
2021/08/02 13:31:01;;;;;;;6.43;2.80;;;;;;;;;;5014644;28;20018;-88
2021/08/02 13:33:26;;;;;;;6.57;2.78;;;;;;;;;;5018082;28;20017;-88
2021/08/02 13:35:51;;;;;;;7.00;2.70;;;;;;;;;;5029318;28;20028;-88
2021/08/02 13:38:16;;;;;;;3.60;2.13;;;;;;;;;;5021234;28;20052;-88
2021/08/02 13:40:42;;;;;;;7.65;2.25;;;;;;;;;;5018681;28;20025;-88
2021/08/02 13:43:07;;;;;;;3.15;2.10;;;;;;;;;;5014484;28;20018;-89
2021/08/02 13:45:35;;;;;;;10.90;2.72;;;;;;;;;;5017153;28;20033;-89
2021/08/02 13:48:00;;;;;;;6.82;2.67;;;;;;;;;;5024095;28;20024;-88
2021/08/02 13:50:25;;;;;;;4.88;2.70;;;;;;;;;;5019995;28;20014;-88
2021/08/02 13:52:50;;;;;;;7.20;2.83;;;;;;;;;;5019553;28;20017;-89
2021/08/02 13:55:15;;;;;;;3.70;2.60;;;;;;;;;;5013865;28;20028;-89
2021/08/02 13:57:42;;;;;;;4.22;3.00;;;;;;;;;;5023697;28;20013;-88
2021/08/02 14:00:07;;;;;;;5.38;2.67;;;;;;;;;;5021033;28;20014;-89
2021/08/02 14:02:33;;;;;;;7.13;3.30;;;;;;;;;;5012400;28;20076;-88
2021/08/02 14:04:58;;;;;;;6.22;2.83;;;;;;;;;;5012614;28;20021;-88
2021/08/02 14:07:25;;;;;;;4.85;2.83;;;;;;;;;;5021659;28;20036;-89
2021/08/02 14:09:50;;;;;;;9.93;3.38;;;;;;;;;;5018213;28;20037;-88
2021/08/02 14:12:18;;;;;;;10.50;3.55;;;;;;;;;;5017980;28;20026;-88
2021/08/02 14:14:44;;;;;;;8.27;3.40;;;;;;;;;;5052182;28;20419;-88
2021/08/02 14:17:15;;;;;;;7.68;3.45;;;;;;;;;;5022998;28;20109;-88
2021/08/02 14:19:40;;;;;;;5.55;3.47;;;;;;;;;;5017977;28;20025;-88
2021/08/02 14:22:06;;;;;;;8.70;3.28;;;;;;;;;;5015509;28;20014;-88
2021/08/02 14:24:31;;;;;;;6.93;3.60;;;;;;;;;;5011944;28;20386;-88
2021/08/02 14:26:58;;;;;;;6.50;3.85;;;;;;;;;;5022368;28;20484;-88
2021/08/02 14:29:23;;;;;;;9.32;4.60;;;;;;;;;;5027747;28;20439;-88
2021/08/02 14:31:48;;;;;;;7.38;3.67;;;;;;;;;;5011728;28;20112;-88
2021/08/02 14:34:14;;;;;;;7.05;3.88;;;;;;;;;;5012685;28;20101;-88
2021/08/02 14:36:41;;;;;;;5.88;4.00;;;;;;;;;;5026917;28;20377;-88